Time;durP1;ratioP1;P1;durP2;ratioP2;P2;SDS_P1;SDS_P2;PMS_P1;PMS_P2;Temp;Humidity;BMP_temperature;BMP_pressure;BME280_temperature;BME280_humidity;BME280_pressure;Samples;Min_cycle;Max_cycle;Signal;HPM_P1;HPM_P2
2021/07/09 00:01:42;;;;;;;2.27;1.72;;;16.50;99.90;;;;;;1922064;75;21147;-75
2021/07/09 00:04:08;;;;;;;3.50;1.40;;;16.50;99.90;;;;;;1921864;75;21163;-75
2021/07/09 00:06:35;;;;;;;9.65;1.70;;;16.50;99.90;;;;;;1922065;75;21134;-75
2021/07/09 00:09:01;;;;;;;1.60;1.27;;;16.50;99.90;;;;;;1922164;75;21029;-75
2021/07/09 00:11:28;;;;;;;2.70;1.30;;;16.50;99.90;;;;;;1921962;75;21440;-75
2021/07/09 00:13:54;;;;;;;4.92;1.55;;;16.60;99.90;;;;;;1921716;75;21174;-77
2021/07/09 00:16:23;;;;;;;1.87;1.35;;;16.50;99.90;;;;;;1921954;73;21142;-77
2021/07/09 00:18:48;;;;;;;2.40;1.65;;;16.50;99.90;;;;;;1921660;74;21068;-77
2021/07/09 00:21:17;;;;;;;2.10;1.40;;;16.50;99.90;;;;;;1922283;75;21060;-78
2021/07/09 00:23:46;;;;;;;2.47;1.50;;;16.60;99.90;;;;;;1922206;73;21111;-77
2021/07/09 00:26:13;;;;;;;1.92;1.60;;;16.60;99.90;;;;;;1921487;74;21538;-76
2021/07/09 00:28:43;;;;;;;2.27;1.22;;;16.60;99.90;;;;;;1921936;75;21060;-76
2021/07/09 00:31:12;;;;;;;1.40;1.30;;;16.60;99.90;;;;;;1920862;74;21053;-76
2021/07/09 00:33:41;;;;;;;3.20;1.30;;;16.70;99.90;;;;;;1921928;75;21048;-76
2021/07/09 00:36:07;;;;;;;1.70;1.50;;;16.70;99.90;;;;;;1922056;75;21025;-76
2021/07/09 00:38:34;;;;;;;2.27;1.30;;;16.70;99.90;;;;;;1921915;73;21092;-76
2021/07/09 00:41:00;;;;;;;1.62;1.42;;;16.70;99.90;;;;;;1921986;75;21036;-75
2021/07/09 00:43:28;;;;;;;1.90;1.45;;;16.60;99.90;;;;;;1921946;75;21064;-76
2021/07/09 00:45:59;;;;;;;1.30;1.20;;;16.70;99.90;;;;;;1921933;73;21580;-74
2021/07/09 00:48:22;;;;;;;2.10;1.37;;;16.60;99.90;;;;;;1920900;74;21052;-74
2021/07/09 00:50:51;;;;;;;4.78;1.30;;;16.60;99.90;;;;;;1922151;73;21130;-73
2021/07/09 00:53:16;;;;;;;2.62;1.60;;;16.50;99.90;;;;;;1921768;74;21122;-73
2021/07/09 00:55:42;;;;;;;3.75;1.70;;;16.60;99.90;;;;;;1922025;75;21025;-73
2021/07/09 00:58:09;;;;;;;2.42;1.62;;;16.60;99.90;;;;;;1922136;75;21060;-74
2021/07/09 01:00:35;;;;;;;3.87;1.70;;;16.50;99.90;;;;;;1922013;75;21056;-73
2021/07/09 01:03:01;;;;;;;2.92;2.00;;;16.50;99.90;;;;;;1922135;73;21057;-73
2021/07/09 01:05:27;;;;;;;1.47;1.37;;;16.50;99.90;;;;;;1922089;73;21072;-73
2021/07/09 01:07:53;;;;;;;4.90;1.60;;;16.50;99.90;;;;;;1922007;75;21061;-73
2021/07/09 01:10:19;;;;;;;2.67;1.92;;;16.50;99.90;;;;;;1922116;73;21077;-73
2021/07/09 01:12:45;;;;;;;1.85;1.60;;;16.50;99.90;;;;;;1922218;73;21143;-74
2021/07/09 01:15:12;;;;;;;2.80;1.47;;;16.50;99.90;;;;;;1922222;75;21037;-76
2021/07/09 01:17:38;;;;;;;2.45;1.65;;;16.40;99.90;;;;;;1921931;73;21157;-75
2021/07/09 01:20:04;;;;;;;1.87;1.57;;;16.40;99.90;;;;;;1922180;75;21103;-73
2021/07/09 01:22:32;;;;;;;1.85;1.40;;;16.40;99.90;;;;;;1921965;73;21068;-74
2021/07/09 01:25:01;;;;;;;1.57;1.02;;;16.30;99.90;;;;;;1930378;72;21448;-73
2021/07/09 01:27:27;;;;;;;1.80;1.55;;;16.30;99.90;;;;;;1938674;73;21064;-73
2021/07/09 01:29:53;;;;;;;3.67;1.62;;;16.30;99.90;;;;;;1922211;73;21030;-74
2021/07/09 01:32:19;;;;;;;2.45;1.60;;;16.30;99.90;;;;;;1921969;73;21138;-75
2021/07/09 01:34:47;;;;;;;1.92;1.42;;;16.30;99.90;;;;;;1922145;75;21468;-74
2021/07/09 01:37:13;;;;;;;4.12;1.57;;;16.40;99.90;;;;;;1922118;73;21138;-74
2021/07/09 01:39:41;;;;;;;3.12;1.60;;;16.40;99.90;;;;;;1922174;75;21133;-74
2021/07/09 01:42:07;;;;;;;3.02;1.67;;;16.40;99.90;;;;;;1921625;74;21048;-74
2021/07/09 01:44:33;;;;;;;1.45;1.35;;;16.40;99.90;;;;;;1922019;73;21143;-75
2021/07/09 01:46:59;;;;;;;3.08;1.72;;;16.40;99.90;;;;;;1921999;75;21056;-75
2021/07/09 01:49:25;;;;;;;1.50;1.40;;;16.40;99.90;;;;;;1922128;73;21103;-75
2021/07/09 01:51:59;;;;;;;2.33;1.60;;;16.30;99.90;;;;;;1922019;75;21052;-75
2021/07/09 01:54:22;;;;;;;1.60;1.50;;;16.30;99.90;;;;;;1918482;74;21048;-75
2021/07/09 01:56:48;;;;;;;4.87;1.92;;;16.30;99.90;;;;;;1922143;75;21581;-75
2021/07/09 01:59:19;;;;;;;2.55;1.67;;;16.30;99.90;;;;;;1922185;75;21612;-75
2021/07/09 02:01:42;;;;;;;3.58;1.67;;;16.30;99.90;;;;;;1920915;74;21073;-75
2021/07/09 02:04:08;;;;;;;2.90;1.70;;;16.40;99.90;;;;;;1922167;75;21146;-75
2021/07/09 02:06:35;;;;;;;5.90;1.50;;;16.30;99.90;;;;;;1922116;75;21165;-75
2021/07/09 02:09:01;;;;;;;3.12;1.90;;;16.30;99.90;;;;;;1922163;75;21130;-75
2021/07/09 02:11:34;;;;;;;4.55;1.52;;;16.30;99.90;;;;;;1921967;75;21056;-76
2021/07/09 02:13:55;;;;;;;3.05;1.47;;;16.30;99.90;;;;;;1918467;74;21107;-75
2021/07/09 02:16:21;;;;;;;1.60;1.50;;;16.30;99.90;;;;;;1921970;75;21068;-75
2021/07/09 02:18:47;;;;;;;2.85;1.30;;;16.30;99.90;;;;;;1922644;73;21127;-76
2021/07/09 02:21:13;;;;;;;4.72;1.50;;;16.30;99.90;;;;;;1927306;73;21083;-75
2021/07/09 02:23:42;;;;;;;1.92;1.52;;;16.30;99.90;;;;;;1922104;73;21150;-75
2021/07/09 02:26:07;;;;;;;1.77;1.40;;;16.30;99.90;;;;;;1921650;74;21558;-74
2021/07/09 02:28:36;;;;;;;3.27;1.65;;;16.30;99.90;;;;;;1921954;75;21503;-75
2021/07/09 02:31:02;;;;;;;4.28;1.70;;;16.30;99.90;;;;;;1921861;73;21060;-75
2021/07/09 02:33:28;;;;;;;1.42;1.32;;;16.30;99.90;;;;;;1922108;75;21064;-74
2021/07/09 02:35:56;;;;;;;2.10;1.37;;;16.30;99.90;;;;;;1922033;75;21108;-75
2021/07/09 02:38:22;;;;;;;1.82;1.55;;;16.30;99.90;;;;;;1922222;73;21068;-75
2021/07/09 02:40:48;;;;;;;5.67;1.82;;;16.40;99.90;;;;;;1922031;75;21139;-75
2021/07/09 02:43:18;;;;;;;3.12;1.30;;;16.40;99.90;;;;;;1921977;73;21037;-76
2021/07/09 02:45:42;;;;;;;3.15;1.65;;;16.40;99.90;;;;;;1921069;74;21058;-75
2021/07/09 02:48:12;;;;;;;1.92;1.70;;;16.40;99.90;;;;;;1922119;75;21134;-75
2021/07/09 02:50:36;;;;;;;3.90;1.62;;;16.40;99.90;;;;;;1921250;74;21056;-76
2021/07/09 02:53:02;;;;;;;1.70;1.60;;;16.40;99.90;;;;;;1925057;75;21072;-75
2021/07/09 02:55:29;;;;;;;2.92;1.75;;;16.30;99.90;;;;;;1925290;75;21131;-75
2021/07/09 02:57:55;;;;;;;3.80;1.90;;;16.30;99.90;;;;;;1922740;73;21130;-75
2021/07/09 03:00:21;;;;;;;1.72;1.62;;;16.30;99.90;;;;;;1922561;75;21041;-75
2021/07/09 03:02:49;;;;;;;2.50;2.10;;;16.30;99.90;;;;;;1922184;75;21076;-75
2021/07/09 03:05:23;;;;;;;6.00;2.08;;;16.30;99.90;;;;;;1922023;75;21539;-74
2021/07/09 03:07:49;;;;;;;3.17;1.65;;;16.20;99.90;;;;;;1920430;74;21111;-75
2021/07/09 03:10:18;;;;;;;2.35;1.98;;;16.20;99.90;;;;;;1921365;74;21072;-76
2021/07/09 03:12:44;;;;;;;6.83;1.90;;;16.20;99.90;;;;;;1922135;75;21181;-75
2021/07/09 03:15:10;;;;;;;1.62;1.47;;;16.20;99.90;;;;;;1921965;75;21146;-76
2021/07/09 03:17:36;;;;;;;2.52;2.02;;;16.20;99.90;;;;;;1922061;75;21146;-76
2021/07/09 03:20:03;;;;;;;3.42;1.90;;;16.20;99.90;;;;;;1921796;75;21140;-76
2021/07/09 03:22:29;;;;;;;3.12;1.55;;;16.20;99.90;;;;;;1922060;75;21138;-76
2021/07/09 03:24:55;;;;;;;4.78;1.92;;;16.10;99.90;;;;;;1921909;75;21112;-75
2021/07/09 03:27:21;;;;;;;3.27;1.60;;;16.20;99.90;;;;;;1909135;74;21025;-75
2021/07/09 03:29:47;;;;;;;3.20;1.75;;;16.20;99.90;;;;;;1921965;75;21068;-74
2021/07/09 03:32:13;;;;;;;3.25;1.82;;;16.10;99.90;;;;;;1921996;73;21138;-75
2021/07/09 03:34:39;;;;;;;1.75;1.65;;;16.10;99.90;;;;;;1922044;75;21062;-75
2021/07/09 03:37:06;;;;;;;2.70;1.47;;;16.10;99.90;;;;;;1922001;75;21162;-74
2021/07/09 03:39:32;;;;;;;5.90;1.62;;;16.10;99.90;;;;;;1922011;73;21068;-75
2021/07/09 03:41:58;;;;;;;8.53;1.60;;;16.10;99.90;;;;;;1922098;75;21072;-76
2021/07/09 03:44:25;;;;;;;8.55;1.82;;;16.10;99.90;;;;;;1921856;75;21103;-76
2021/07/09 03:46:51;;;;;;;3.42;2.17;;;16.10;99.90;;;;;;1921966;73;21037;-75
2021/07/09 03:49:17;;;;;;;2.75;2.05;;;16.10;99.90;;;;;;1921912;73;21060;-76
2021/07/09 03:51:44;;;;;;;8.73;1.98;;;16.20;99.90;;;;;;1922073;75;21057;-76
2021/07/09 03:54:23;;;;;;;;;;;;;;;;;;;;;
2021/07/09 03:56:38;;;;;;;2.87;1.72;;;16.20;99.90;;;;;;1917351;74;21159;-76
2021/07/09 03:59:04;;;;;;;4.35;1.72;;;16.20;99.90;;;;;;1922015;75;21177;-75
2021/07/09 04:01:31;;;;;;;2.85;2.17;;;16.20;99.90;;;;;;1921800;75;21056;-76
2021/07/09 04:03:57;;;;;;;4.60;2.05;;;16.20;99.90;;;;;;1921942;75;21037;-76
2021/07/09 04:06:26;;;;;;;4.20;2.15;;;16.20;99.90;;;;;;1922082;73;21072;-74
2021/07/09 04:08:52;;;;;;;3.85;2.00;;;16.20;99.90;;;;;;1921940;75;21456;-75
2021/07/09 04:11:21;;;;;;;1.55;1.45;;;16.20;99.90;;;;;;1921966;75;21037;-75
2021/07/09 04:13:47;;;;;;;2.60;2.02;;;16.20;99.90;;;;;;1934558;73;21037;-75
2021/07/09 04:16:16;;;;;;;3.65;2.20;;;16.20;99.90;;;;;;1927817;73;21134;-75
2021/07/09 04:18:45;;;;;;;3.62;1.92;;;16.10;99.90;;;;;;1921947;73;21103;-75
2021/07/09 04:21:11;;;;;;;2.80;1.90;;;16.10;99.90;;;;;;1928523;73;21520;-75
2021/07/09 04:23:37;;;;;;;4.55;1.90;;;16.00;99.90;;;;;;1921915;75;21546;-74
2021/07/09 04:26:03;;;;;;;4.12;2.50;;;16.10;99.90;;;;;;1921886;75;21030;-74
2021/07/09 04:28:30;;;;;;;7.22;2.25;;;16.00;99.90;;;;;;1921878;75;21595;-74
2021/07/09 04:30:56;;;;;;;2.87;2.00;;;16.00;99.90;;;;;;1922004;75;21060;-74
2021/07/09 04:33:22;;;;;;;3.60;2.02;;;16.00;99.90;;;;;;1922016;75;21134;-73
2021/07/09 04:35:53;;;;;;;3.55;2.02;;;16.00;99.90;;;;;;1921944;73;21072;-73
2021/07/09 04:38:16;;;;;;;2.95;1.85;;;16.00;99.90;;;;;;1921052;73;21142;-74
2021/07/09 04:40:42;;;;;;;3.10;1.92;;;16.00;99.90;;;;;;1922002;75;21068;-74
2021/07/09 04:43:11;;;;;;;2.55;2.35;;;15.90;99.90;;;;;;1921913;75;21073;-74
2021/07/09 04:45:36;;;;;;;2.05;1.90;;;15.90;99.90;;;;;;1921723;73;21060;-75
2021/07/09 04:48:11;;;;;;;5.15;2.00;;;15.90;99.90;;;;;;1922002;75;21060;-75
2021/07/09 04:50:37;;;;;;;2.22;1.92;;;15.90;99.90;;;;;;1921976;75;21507;-76
2021/07/09 04:53:03;;;;;;;6.80;2.70;;;15.90;99.90;;;;;;1921821;75;21513;-75
2021/07/09 04:55:30;;;;;;;4.70;2.05;;;15.90;99.90;;;;;;1921990;75;21449;-74
2021/07/09 04:57:56;;;;;;;3.37;2.17;;;15.90;99.90;;;;;;1922104;73;21021;-72
2021/07/09 05:00:25;;;;;;;3.60;2.33;;;16.00;99.90;;;;;;1922072;73;21064;-75
2021/07/09 05:02:50;;;;;;;5.55;2.77;;;15.90;99.90;;;;;;1921474;74;21602;-74
2021/07/09 05:05:16;;;;;;;4.05;2.22;;;15.90;99.90;;;;;;1922021;75;21496;-75
2021/07/09 05:07:42;;;;;;;3.37;2.17;;;15.90;99.90;;;;;;1921746;75;21061;-74
2021/07/09 05:10:12;;;;;;;3.20;2.35;;;15.80;99.90;;;;;;1921757;75;21072;-75
2021/07/09 05:12:36;;;;;;;2.60;2.10;;;15.90;99.90;;;;;;1920994;74;21025;-74
2021/07/09 05:15:02;;;;;;;4.53;2.58;;;15.80;99.90;;;;;;1921985;73;21056;-74
2021/07/09 05:17:28;;;;;;;6.40;2.52;;;15.80;99.90;;;;;;1922104;75;21044;-73
2021/07/09 05:19:55;;;;;;;2.90;1.70;;;15.90;99.90;;;;;;1921997;75;21104;-74
2021/07/09 05:22:22;;;;;;;2.33;2.00;;;15.80;99.90;;;;;;1921931;75;21131;-74
2021/07/09 05:24:48;;;;;;;9.10;1.90;;;15.80;99.90;;;;;;1921771;73;21060;-74
2021/07/09 05:27:15;;;;;;;4.40;2.25;;;15.90;99.90;;;;;;1921942;75;21052;-73
2021/07/09 05:29:41;;;;;;;3.12;2.12;;;15.80;99.90;;;;;;1921729;75;21084;-73
2021/07/09 05:32:07;;;;;;;2.70;2.10;;;15.90;99.90;;;;;;1921958;73;21065;-73
2021/07/09 05:34:33;;;;;;;2.05;1.82;;;15.90;99.90;;;;;;1921773;75;21057;-74
2021/07/09 05:37:00;;;;;;;2.33;1.92;;;15.90;99.90;;;;;;1922054;75;21137;-74
2021/07/09 05:39:26;;;;;;;2.08;1.82;;;15.90;99.90;;;;;;1921765;75;21146;-75
2021/07/09 05:41:52;;;;;;;5.25;1.82;;;15.90;99.90;;;;;;1922144;75;21033;-74
2021/07/09 05:44:18;;;;;;;1.60;1.50;;;16.00;99.90;;;;;;1921976;75;21044;-75
2021/07/09 05:46:44;;;;;;;2.25;2.02;;;16.00;99.90;;;;;;1922074;75;21464;-75
2021/07/09 05:49:10;;;;;;;1.98;1.65;;;16.00;99.90;;;;;;1922185;75;21440;-74
2021/07/09 05:51:36;;;;;;;4.37;1.70;;;16.00;99.90;;;;;;1922472;73;21421;-74
2021/07/09 05:54:02;;;;;;;8.45;1.95;;;16.10;99.90;;;;;;1922612;75;21574;-74
2021/07/09 05:56:30;;;;;;;3.77;2.08;;;16.10;99.90;;;;;;1922556;73;21064;-73
2021/07/09 05:58:56;;;;;;;4.45;2.35;;;16.10;99.90;;;;;;1922506;75;21052;-74
2021/07/09 06:01:24;;;;;;;3.98;2.17;;;16.20;99.90;;;;;;1922192;75;21138;-73
2021/07/09 06:03:50;;;;;;;7.65;1.95;;;16.20;99.90;;;;;;1922628;75;21055;-75
2021/07/09 06:06:16;;;;;;;8.63;2.27;;;16.20;99.90;;;;;;1922496;75;21178;-75
2021/07/09 06:08:42;;;;;;;2.70;1.45;;;16.20;99.90;;;;;;1922557;73;21060;-75
2021/07/09 06:11:08;;;;;;;2.17;1.90;;;16.20;99.90;;;;;;1922573;75;21029;-75
2021/07/09 06:13:36;;;;;;;3.75;1.77;;;16.20;99.90;;;;;;1922476;75;21100;-75
2021/07/09 06:16:02;;;;;;;3.55;2.00;;;16.30;99.90;;;;;;1922480;75;21057;-76
2021/07/09 06:18:28;;;;;;;2.40;1.62;;;16.20;99.90;;;;;;1938788;72;21076;-76
2021/07/09 06:20:54;;;;;;;2.98;1.92;;;16.30;99.90;;;;;;1931815;72;21041;-76
2021/07/09 06:23:20;;;;;;;2.95;1.90;;;16.30;99.90;;;;;;1922524;75;21141;-73
2021/07/09 06:25:46;;;;;;;2.62;2.17;;;16.30;99.90;;;;;;1922405;75;21072;-74
2021/07/09 06:28:13;;;;;;;9.53;2.50;;;16.30;99.90;;;;;;1922292;75;21064;-73
2021/07/09 06:30:40;;;;;;;2.22;2.02;;;16.40;99.90;;;;;;1925235;73;21578;-74
2021/07/09 06:33:08;;;;;;;2.42;2.17;;;16.50;99.90;;;;;;1945676;73;21041;-76
2021/07/09 06:35:35;;;;;;;3.00;1.90;;;16.50;99.90;;;;;;1928230;73;21057;-74
2021/07/09 06:38:01;;;;;;;5.60;2.20;;;16.60;99.90;;;;;;1922582;75;21052;-76
2021/07/09 06:40:27;;;;;;;4.22;2.00;;;16.80;99.90;;;;;;1928133;73;21138;-76
2021/07/09 06:42:55;;;;;;;7.62;2.20;;;16.90;99.90;;;;;;1921902;73;21481;-78
2021/07/09 06:45:21;;;;;;;5.35;2.15;;;17.00;99.90;;;;;;1921801;75;21560;-77
2021/07/09 06:47:47;;;;;;;2.80;1.92;;;17.00;99.90;;;;;;1921782;75;21537;-79
2021/07/09 06:50:15;;;;;;;5.40;2.20;;;17.00;99.90;;;;;;1922024;73;21472;-79
2021/07/09 06:52:52;;;;;;;2.42;1.90;;;17.00;99.90;;;;;;1921963;73;21061;-79
2021/07/09 06:55:25;;;;;;;5.08;2.62;;;16.90;99.90;;;;;;1921635;74;21452;-76
2021/07/09 06:57:50;;;;;;;6.17;1.98;;;16.70;99.90;;;;;;1920656;74;21056;-76
2021/07/09 07:00:20;;;;;;;3.67;2.40;;;16.70;99.90;;;;;;1921896;73;21108;-77
2021/07/09 07:02:48;;;;;;;4.28;2.50;;;16.70;99.90;;;;;;1922041;73;21574;-77
2021/07/09 07:05:15;;;;;;;2.85;2.15;;;16.70;99.90;;;;;;1921978;73;21052;-76
2021/07/09 07:07:41;;;;;;;3.20;2.15;;;16.70;99.90;;;;;;1921652;75;21025;-76
2021/07/09 07:10:07;;;;;;;3.33;2.22;;;16.70;99.90;;;;;;1921760;75;21029;-76
2021/07/09 07:12:33;;;;;;;4.35;2.37;;;16.70;99.90;;;;;;1921895;75;21056;-77
2021/07/09 07:14:59;;;;;;;3.27;2.50;;;16.70;99.90;;;;;;1921974;75;21129;-76
2021/07/09 07:17:25;;;;;;;3.30;2.08;;;16.60;99.90;;;;;;1922169;75;21029;-80
2021/07/09 07:19:51;;;;;;;4.55;2.35;;;16.70;99.90;;;;;;1921891;75;21052;-80
2021/07/09 07:22:17;;;;;;;3.37;2.10;;;16.60;99.90;;;;;;1921950;75;21056;-80
2021/07/09 07:24:48;;;;;;;6.45;2.00;;;16.80;99.90;;;;;;1921848;75;21048;-75
2021/07/09 07:27:11;;;;;;;4.75;2.35;;;16.80;99.90;;;;;;1921373;74;21077;-71
2021/07/09 07:29:38;;;;;;;11.93;2.17;;;16.90;99.90;;;;;;1921855;75;21126;-73
2021/07/09 07:32:04;;;;;;;4.20;2.10;;;17.00;99.90;;;;;;1921682;75;21044;-74
2021/07/09 07:34:30;;;;;;;2.30;1.90;;;16.90;99.90;;;;;;1921903;75;21057;-74
2021/07/09 07:36:56;;;;;;;2.80;1.60;;;17.00;99.90;;;;;;1921728;73;21177;-73
2021/07/09 07:39:22;;;;;;;2.47;2.27;;;17.00;99.90;;;;;;1921917;75;21056;-74
2021/07/09 07:41:48;;;;;;;3.05;2.15;;;17.20;99.90;;;;;;1921965;75;21057;-74
2021/07/09 07:44:14;;;;;;;3.12;1.57;;;17.40;99.90;;;;;;1922263;75;21025;-72
2021/07/09 07:46:40;;;;;;;2.05;1.85;;;17.40;99.90;;;;;;1924911;74;21056;-72
2021/07/09 07:49:07;;;;;;;3.08;1.62;;;17.50;99.90;;;;;;1925751;72;21040;-73
2021/07/09 07:51:33;;;;;;;2.20;1.90;;;17.70;99.90;;;;;;1921901;75;21053;-74
2021/07/09 07:53:59;;;;;;;2.33;1.85;;;18.00;99.90;;;;;;1921872;75;21026;-74
2021/07/09 07:56:25;;;;;;;5.03;1.67;;;17.90;99.90;;;;;;1921830;75;21052;-74
2021/07/09 07:58:54;;;;;;;4.78;1.75;;;17.90;99.90;;;;;;1921775;75;21048;-74
2021/07/09 08:01:20;;;;;;;4.42;1.70;;;17.90;99.90;;;;;;1921882;75;21033;-74
2021/07/09 08:03:47;;;;;;;2.10;1.92;;;17.80;99.90;;;;;;1921827;75;21472;-74
2021/07/09 08:06:13;;;;;;;3.77;1.87;;;17.90;99.90;;;;;;1921781;75;21558;-74
2021/07/09 08:08:39;;;;;;;2.72;1.57;;;18.00;99.90;;;;;;1921859;73;21478;-74
2021/07/09 08:11:05;;;;;;;2.72;2.35;;;18.10;99.90;;;;;;1921776;75;21419;-74
2021/07/09 08:13:31;;;;;;;1.72;1.62;;;18.40;99.90;;;;;;1921819;73;21122;-74
2021/07/09 08:15:57;;;;;;;2.72;2.05;;;18.50;99.90;;;;;;1921800;75;21061;-74
2021/07/09 08:18:24;;;;;;;5.30;1.98;;;18.70;99.90;;;;;;1921819;75;21057;-74
2021/07/09 08:20:50;;;;;;;4.00;2.17;;;18.80;99.90;;;;;;1921650;75;21064;-74
2021/07/09 08:23:16;;;;;;;2.65;1.67;;;18.80;99.90;;;;;;1934310;73;21159;-74
2021/07/09 08:25:42;;;;;;;7.37;2.60;;;18.70;99.90;;;;;;1921767;75;21168;-74
2021/07/09 08:28:08;;;;;;;6.33;2.27;;;18.80;99.90;;;;;;1921723;73;21053;-74
2021/07/09 08:30:34;;;;;;;3.10;2.22;;;19.00;99.90;;;;;;1921727;75;21142;-74
2021/07/09 08:33:00;;;;;;;4.03;2.10;;;19.20;99.90;;;;;;1921806;73;21150;-73
2021/07/09 08:35:28;;;;;;;2.25;2.05;;;19.30;99.90;;;;;;1921546;75;21115;-76
2021/07/09 08:37:54;;;;;;;11.35;2.58;;;19.30;99.90;;;;;;1921730;73;21213;-72
2021/07/09 08:40:20;;;;;;;4.00;2.92;;;19.50;99.90;;;;;;1921474;73;21149;-73
2021/07/09 08:42:47;;;;;;;2.52;1.95;;;19.20;99.90;;;;;;1921535;73;21104;-72
2021/07/09 08:45:13;;;;;;;3.75;2.35;;;19.10;99.90;;;;;;1927395;73;21127;-73
2021/07/09 08:47:39;;;;;;;5.97;2.20;;;19.40;99.90;;;;;;1921524;73;21053;-73
2021/07/09 08:50:05;;;;;;;3.95;2.15;;;19.40;99.90;;;;;;1921500;73;21052;-75
2021/07/09 08:52:33;;;;;;;3.27;2.30;;;19.30;99.90;;;;;;1921831;75;21110;-74
2021/07/09 08:54:59;;;;;;;2.92;2.02;;;19.20;99.90;;;;;;1921728;75;21488;-73
2021/07/09 08:57:25;;;;;;;5.40;2.30;;;19.40;99.90;;;;;;1921514;73;21440;-73
2021/07/09 08:59:51;;;;;;;3.25;2.10;;;19.50;99.90;;;;;;1934942;73;21488;-72
2021/07/09 09:02:19;;;;;;;2.40;2.08;;;19.30;99.90;;;;;;1933058;73;21597;-73
2021/07/09 09:04:46;;;;;;;3.37;2.20;;;19.40;99.90;;;;;;1941250;72;21148;-74
2021/07/09 09:07:13;;;;;;;3.12;1.90;;;19.50;99.90;;;;;;1946247;72;21049;-73
2021/07/09 09:09:39;;;;;;;3.45;1.90;;;19.60;99.90;;;;;;1931230;73;21142;-72
2021/07/09 09:12:05;;;;;;;3.58;2.12;;;20.00;99.90;;;;;;1926873;73;21138;-72
2021/07/09 09:14:31;;;;;;;3.75;2.37;;;20.40;99.90;;;;;;1921602;73;21143;-74
2021/07/09 09:16:57;;;;;;;3.17;1.70;;;20.80;99.90;;;;;;1921718;73;21033;-73
2021/07/09 09:19:23;;;;;;;3.75;2.10;;;21.00;99.90;;;;;;1921630;73;21085;-72
2021/07/09 09:21:50;;;;;;;2.87;2.02;;;21.20;99.90;;;;;;1924398;73;21072;-71
2021/07/09 09:24:16;;;;;;;2.65;1.60;;;21.40;99.90;;;;;;1931072;73;21134;-73
2021/07/09 09:26:42;;;;;;;1.95;1.70;;;21.80;99.90;;;;;;1921329;75;21027;-74
2021/07/09 09:29:08;;;;;;;3.42;1.90;;;22.10;99.90;;;;;;1921467;75;21072;-73
2021/07/09 09:31:34;;;;;;;3.80;2.25;;;22.30;99.90;;;;;;1921281;75;21068;-73
2021/07/09 09:34:00;;;;;;;2.02;1.82;;;22.00;99.90;;;;;;1921536;73;21076;-73
2021/07/09 09:36:27;;;;;;;3.22;1.92;;;21.60;99.90;;;;;;1921367;75;21127;-73
2021/07/09 09:38:53;;;;;;;5.35;2.20;;;21.30;99.90;;;;;;1921461;75;21045;-73
2021/07/09 09:41:22;;;;;;;3.67;1.47;;;21.50;99.90;;;;;;1921399;73;21072;-73
2021/07/09 09:43:48;;;;;;;7.20;2.22;;;21.70;99.90;;;;;;1921533;75;21507;-73
2021/07/09 09:46:17;;;;;;;8.43;1.98;;;21.90;99.90;;;;;;1921321;75;21440;-73
2021/07/09 09:48:44;;;;;;;2.50;1.90;;;22.20;99.90;;;;;;1921304;73;21103;-74
2021/07/09 09:51:11;;;;;;;2.72;1.55;;;22.20;99.90;;;;;;1921306;75;21049;-74
2021/07/09 09:53:37;;;;;;;4.00;1.52;;;22.30;99.90;;;;;;1921430;75;21119;-73
2021/07/09 09:56:03;;;;;;;2.42;1.85;;;22.20;99.90;;;;;;1921438;75;21065;-74
2021/07/09 09:58:29;;;;;;;3.10;1.67;;;22.20;99.90;;;;;;1921458;75;21076;-74
2021/07/09 10:00:55;;;;;;;7.83;2.08;;;22.20;99.90;;;;;;1921502;75;21146;-73
2021/07/09 10:03:21;;;;;;;3.05;1.85;;;22.00;99.90;;;;;;1921537;73;21076;-74
2021/07/09 10:05:48;;;;;;;1.90;1.57;;;22.00;99.90;;;;;;1921404;73;21145;-73
2021/07/09 10:08:14;;;;;;;2.05;1.87;;;22.10;99.90;;;;;;1921419;75;21080;-73
2021/07/09 10:10:40;;;;;;;1.92;1.70;;;22.00;99.90;;;;;;1921377;75;21073;-75
2021/07/09 10:13:06;;;;;;;3.67;1.80;;;21.70;99.90;;;;;;1921487;75;21145;-73
2021/07/09 10:15:32;;;;;;;3.62;1.90;;;21.50;99.90;;;;;;1921275;75;21489;-72
2021/07/09 10:17:59;;;;;;;3.15;1.85;;;21.50;99.90;;;;;;1921340;75;21554;-73
2021/07/09 10:20:25;;;;;;;7.67;2.17;;;21.60;99.90;;;;;;1921181;75;21080;-72
2021/07/09 10:22:51;;;;;;;2.22;1.65;;;21.50;99.90;;;;;;1921225;75;21158;-73
2021/07/09 10:25:17;;;;;;;2.37;1.65;;;21.60;99.90;;;;;;1921382;75;21146;-72
2021/07/09 10:27:44;;;;;;;3.72;1.60;;;21.70;99.90;;;;;;1922728;75;21049;-73
2021/07/09 10:30:10;;;;;;;4.40;1.95;;;21.80;99.90;;;;;;1921760;73;21080;-73
2021/07/09 10:32:36;;;;;;;2.27;1.70;;;21.90;99.90;;;;;;1921374;75;21072;-74
2021/07/09 10:35:02;;;;;;;2.47;1.65;;;22.20;99.90;;;;;;1921424;75;21036;-74
2021/07/09 10:37:31;;;;;;;3.52;1.50;;;22.50;99.90;;;;;;1921356;75;21030;-73
2021/07/09 10:40:00;;;;;;;4.22;2.00;;;22.40;99.90;;;;;;1921342;73;21073;-73
2021/07/09 10:42:26;;;;;;;3.02;1.65;;;22.40;99.90;;;;;;1921416;73;21068;-74
2021/07/09 10:44:52;;;;;;;2.95;1.90;;;21.80;99.90;;;;;;1921639;75;21137;-76
2021/07/09 10:47:18;;;;;;;6.47;1.82;;;22.00;99.90;;;;;;1921700;73;21158;-76
2021/07/09 10:49:44;;;;;;;2.42;1.87;;;22.30;99.90;;;;;;1921758;75;21130;-77
2021/07/09 10:52:10;;;;;;;2.27;2.08;;;22.50;99.90;;;;;;1921732;75;21149;-77
2021/07/09 10:54:36;;;;;;;7.33;2.15;;;22.70;99.90;;;;;;1921415;75;21116;-77
2021/07/09 10:57:02;;;;;;;3.35;1.85;;;22.80;99.90;;;;;;1921556;75;21080;-76
2021/07/09 10:59:29;;;;;;;3.52;1.65;;;22.50;99.90;;;;;;1921469;75;21072;-77
2021/07/09 11:01:55;;;;;;;4.83;2.30;;;22.70;99.90;;;;;;1921597;75;21153;-76
2021/07/09 11:04:21;;;;;;;2.02;1.85;;;22.30;99.90;;;;;;1921621;73;21219;-78
2021/07/09 11:06:47;;;;;;;8.85;2.20;;;22.20;99.90;;;;;;1922275;75;21115;-76
2021/07/09 11:09:13;;;;;;;2.85;2.10;;;22.20;99.90;;;;;;1922531;75;21454;-75
2021/07/09 11:11:39;;;;;;;2.45;1.87;;;22.20;99.90;;;;;;1924876;75;21021;-77
2021/07/09 11:14:06;;;;;;;2.22;1.85;;;22.10;99.90;;;;;;1923875;75;21025;-76
2021/07/09 11:16:32;;;;;;;2.83;2.42;;;22.20;99.90;;;;;;1921895;75;21068;-72
2021/07/09 11:18:58;;;;;;;5.58;2.42;;;22.10;99.90;;;;;;1921723;75;21065;-75
2021/07/09 11:21:24;;;;;;;6.85;2.50;;;22.20;99.90;;;;;;1921919;75;21041;-75
2021/07/09 11:23:50;;;;;;;4.33;2.05;;;22.20;99.90;;;;;;1921785;75;21072;-75
2021/07/09 11:26:17;;;;;;;9.10;2.77;;;22.20;99.90;;;;;;1921766;75;21116;-74
2021/07/09 11:28:44;;;;;;;7.17;2.80;;;22.10;99.90;;;;;;1921706;75;21150;-73
2021/07/09 11:31:12;;;;;;;5.53;3.08;;;22.00;99.90;;;;;;1921698;75;21072;-75
2021/07/09 11:33:38;;;;;;;7.12;3.25;;;21.70;99.90;;;;;;1921889;73;21201;-75
2021/07/09 11:36:04;;;;;;;4.60;3.08;;;21.80;99.90;;;;;;1922031;73;21089;-76
2021/07/09 11:38:30;;;;;;;4.70;2.62;;;22.00;99.90;;;;;;1922227;75;21159;-76
2021/07/09 11:40:56;;;;;;;4.05;3.33;;;22.00;99.90;;;;;;1922186;75;21091;-74
2021/07/09 11:43:22;;;;;;;6.70;3.45;;;22.10;99.90;;;;;;1909480;75;21076;-76
2021/07/09 11:45:49;;;;;;;3.25;2.42;;;22.30;99.90;;;;;;1922107;73;21014;-76
2021/07/09 11:48:15;;;;;;;5.22;2.83;;;22.60;99.90;;;;;;1944700;73;21079;-75
2021/07/09 11:50:41;;;;;;;4.75;2.80;;;23.10;99.90;;;;;;1950500;73;21459;-76
2021/07/09 11:53:07;;;;;;;7.25;3.15;;;23.10;99.90;;;;;;1921678;75;21547;-75
2021/07/09 11:55:33;;;;;;;5.72;2.95;;;23.10;99.90;;;;;;1927986;73;21631;-75
2021/07/09 11:57:59;;;;;;;11.85;3.17;;;22.90;99.90;;;;;;1922503;73;21114;-75
2021/07/09 12:03:11;;;;;;;8.65;3.17;;;22.10;99.90;;;;;;1900829;75;21155;-75
2021/07/09 12:05:37;;;;;;;5.42;2.92;;;22.30;99.90;;;;;;1899035;75;21121;-75
2021/07/09 12:08:03;;;;;;;7.85;3.02;;;23.00;99.90;;;;;;1898780;75;21065;-77
2021/07/09 12:10:32;;;;;;;6.53;3.25;;;23.30;99.90;;;;;;1908495;74;21582;-75
2021/07/09 12:12:58;;;;;;;4.83;2.55;;;23.90;99.90;;;;;;1898905;75;21125;-76
2021/07/09 12:15:24;;;;;;;4.65;3.05;;;24.00;99.90;;;;;;1899124;75;21045;-75
2021/07/09 12:17:50;;;;;;;6.12;3.10;;;24.30;99.90;;;;;;1899305;75;21188;-76
2021/07/09 12:20:17;;;;;;;5.33;2.85;;;24.00;99.90;;;;;;1902163;75;21056;-77
2021/07/09 12:22:43;;;;;;;10.50;3.42;;;23.80;99.90;;;;;;1899627;75;21114;-73
2021/07/09 12:25:09;;;;;;;5.47;3.40;;;23.00;99.90;;;;;;1898906;75;21076;-73
2021/07/09 12:27:35;;;;;;;6.55;4.12;;;22.50;99.90;;;;;;1898527;75;21046;-73
2021/07/09 12:30:01;;;;;;;5.53;3.92;;;21.80;99.90;;;;;;1898712;75;21077;-73
2021/07/09 12:32:27;;;;;;;6.53;3.80;;;21.60;99.90;;;;;;1898730;75;21193;-72
2021/07/09 12:34:53;;;;;;;5.53;3.85;;;21.70;99.90;;;;;;1898895;75;21046;-73
2021/07/09 12:37:20;;;;;;;14.50;3.70;;;22.00;99.90;;;;;;1898723;75;21065;-73
2021/07/09 12:39:46;;;;;;;5.00;3.75;;;22.60;99.90;;;;;;1899044;75;21069;-73
2021/07/09 12:42:12;;;;;;;6.30;3.52;;;22.50;99.90;;;;;;1899402;75;21077;-72
2021/07/09 12:44:38;;;;;;;5.75;3.37;;;22.90;99.90;;;;;;1899884;75;21050;-72
2021/07/09 12:47:04;;;;;;;3.72;3.20;;;22.90;99.90;;;;;;1900844;75;21037;-74